Time;durP1;ratioP1;P1;durP2;ratioP2;P2;SDS_P1;SDS_P2;PMS_P1;PMS_P2;Temp;Humidity;BMP_temperature;BMP_pressure;BME280_temperature;BME280_humidity;BME280_pressure;Samples;Min_cycle;Max_cycle;Signal;HPM_P1;HPM_P2
2022/01/15 00:00:15;;;;;;;32.53;25.53;;;-1.00;99.90;;;;;;5003969;28;20518;-77
2022/01/15 00:02:42;;;;;;;27.00;24.20;;;-1.00;99.90;;;;;;5025042;28;20474;-77
2022/01/15 00:05:11;;;;;;;31.37;23.73;;;-1.00;99.90;;;;;;5022908;28;20459;-77
2022/01/15 00:07:39;;;;;;;27.13;24.23;;;-1.00;99.90;;;;;;5021935;28;20439;-78
2022/01/15 00:10:07;;;;;;;26.70;24.03;;;-1.10;99.90;;;;;;5021767;28;20571;-78
2022/01/15 00:12:39;;;;;;;26.40;23.60;;;-1.10;99.90;;;;;;5023444;28;20921;-78
2022/01/15 00:15:08;;;;;;;28.47;24.33;;;-1.20;99.90;;;;;;5024469;28;20439;-78
2022/01/15 00:17:46;;;;;;;26.10;23.33;;;-1.20;99.90;;;;;;5003482;28;20468;-78
2022/01/15 00:20:19;;;;;;;26.10;22.83;;;-1.20;99.90;;;;;;5025733;28;20448;-78
2022/01/15 00:22:46;;;;;;;26.10;23.30;;;-1.30;99.90;;;;;;5021722;28;20446;-78
2022/01/15 00:25:13;;;;;;;30.40;23.53;;;-1.30;99.90;;;;;;5017777;28;20871;-78
2022/01/15 00:27:41;;;;;;;26.53;23.73;;;-1.40;99.90;;;;;;5026878;28;20853;-78
2022/01/15 00:30:09;;;;;;;24.63;21.93;;;-1.40;99.90;;;;;;5000824;28;20505;-78
2022/01/15 00:32:36;;;;;;;25.23;22.57;;;-1.40;99.90;;;;;;5021288;28;20490;-77
2022/01/15 00:35:04;;;;;;;24.93;22.33;;;-1.30;99.90;;;;;;5023581;28;20439;-77
2022/01/15 00:37:32;;;;;;;24.67;21.80;;;-1.40;99.90;;;;;;5024373;28;20995;-77
2022/01/15 00:39:59;;;;;;;23.73;21.33;;;-1.40;99.90;;;;;;5023064;28;20561;-78
2022/01/15 00:42:27;;;;;;;23.07;20.77;;;-1.40;99.90;;;;;;5014632;28;20874;-77
2022/01/15 00:44:56;;;;;;;22.90;20.60;;;-1.50;99.90;;;;;;5023451;28;20435;-77
2022/01/15 00:47:25;;;;;;;22.37;20.07;;;-1.50;99.90;;;;;;5025512;28;20449;-78
2022/01/15 00:49:52;;;;;;;23.40;21.00;;;-1.50;99.90;;;;;;5022330;28;20475;-77
2022/01/15 00:52:19;;;;;;;24.07;21.67;;;-1.60;99.90;;;;;;5007725;28;20455;-78
2022/01/15 00:54:47;;;;;;;24.10;21.90;;;-1.60;99.90;;;;;;5019023;28;20506;-77
2022/01/15 00:57:17;;;;;;;24.00;21.60;;;-1.60;99.90;;;;;;5023628;28;20514;-78
2022/01/15 00:59:44;;;;;;;23.73;21.13;;;-1.50;99.90;;;;;;5021336;28;20528;-78
2022/01/15 01:02:11;;;;;;;22.37;20.17;;;-1.60;99.90;;;;;;5024009;28;20891;-77
2022/01/15 01:04:38;;;;;;;22.20;20.10;;;-1.50;99.90;;;;;;5018624;28;20449;-77
2022/01/15 01:07:05;;;;;;;22.73;20.63;;;-1.50;99.90;;;;;;5001914;28;20487;-78
2022/01/15 01:09:46;;;;;;;22.07;20.00;;;-1.50;99.90;;;;;;5026155;28;20535;-78
2022/01/15 01:12:28;;;;;;;22.80;20.43;;;-1.50;99.90;;;;;;5021309;28;20858;-77
2022/01/15 01:20:36;;;;;;;21.87;19.77;;;-1.70;99.90;;;;;;5026582;28;20942;-77
2022/01/15 01:23:03;;;;;;;21.63;19.27;;;-1.70;99.90;;;;;;5034543;28;20443;-77
2022/01/15 01:25:35;;;;;;;23.90;21.40;;;-1.70;99.90;;;;;;5032833;28;20470;-77
2022/01/15 01:28:08;;;;;;;22.87;20.60;;;-1.80;99.90;;;;;;5033993;28;20418;-77
2022/01/15 01:30:41;;;;;;;23.47;21.33;;;-1.80;99.90;;;;;;5026832;28;20453;-78
2022/01/15 01:33:27;;;;;;;23.53;21.10;;;-1.70;99.90;;;;;;5018225;28;20443;-78
2022/01/15 01:36:06;;;;;;;24.90;22.37;;;-1.80;99.90;;;;;;5025006;28;20443;-77
2022/01/15 01:38:37;;;;;;;24.37;21.87;;;-1.80;99.90;;;;;;5015457;28;21002;-77
2022/01/15 01:41:06;;;;;;;25.00;22.53;;;-1.80;99.90;;;;;;5018991;28;20452;-77
2022/01/15 01:43:45;;;;;;;27.13;21.57;;;-1.80;99.90;;;;;;5029565;28;20486;-78
2022/01/15 01:46:21;;;;;;;23.37;21.17;;;-1.80;99.90;;;;;;5023280;28;20551;-79
2022/01/15 01:48:48;;;;;;;24.87;22.07;;;-1.80;99.90;;;;;;5007735;28;20481;-78
2022/01/15 01:51:25;;;;;;;28.03;21.93;;;-1.80;99.90;;;;;;5006661;28;20505;-78
2022/01/15 01:53:53;;;;;;;25.53;22.67;;;-1.80;99.90;;;;;;5014565;28;20944;-77
2022/01/15 01:56:20;;;;;;;24.93;22.43;;;-1.80;99.90;;;;;;5023915;28;20440;-76
2022/01/15 01:58:49;;;;;;;27.97;23.13;;;-1.80;99.90;;;;;;5024013;28;21027;-77
2022/01/15 02:01:16;;;;;;;25.97;23.20;;;-1.80;99.90;;;;;;5019930;28;20463;-78
2022/01/15 02:03:43;;;;;;;23.90;21.17;;;-1.80;99.90;;;;;;5024030;28;20854;-78
2022/01/15 02:06:10;;;;;;;26.33;23.53;;;-1.90;99.90;;;;;;5023382;28;20440;-78
2022/01/15 02:08:37;;;;;;;25.83;23.03;;;-1.80;99.90;;;;;;5023378;28;20972;-78
2022/01/15 02:11:06;;;;;;;25.87;23.13;;;-1.90;99.90;;;;;;5023265;28;20473;-77
2022/01/15 02:13:34;;;;;;;25.43;22.57;;;-1.90;99.90;;;;;;5018181;28;20454;-78
2022/01/15 02:16:02;;;;;;;24.73;22.33;;;-1.90;99.90;;;;;;5019147;28;20439;-77
2022/01/15 02:18:30;;;;;;;25.00;22.37;;;-1.90;99.90;;;;;;5014107;28;20501;-77
2022/01/15 02:23:33;;;;;;;25.63;21.70;;;-1.90;99.90;;;;;;5021949;28;20526;-78
2022/01/15 02:23:52;;;;;;;24.57;22.03;;;-2.00;99.90;;;;;;5015492;28;20448;-77
2022/01/15 02:26:20;;;;;;;23.40;21.30;;;-2.00;99.90;;;;;;5006614;28;20456;-77
2022/01/15 02:28:53;;;;;;;28.83;24.40;;;-2.00;99.90;;;;;;5023281;28;20522;-78
2022/01/15 02:31:20;;;;;;;29.20;23.37;;;-2.00;99.90;;;;;;5025188;28;20454;-77
2022/01/15 02:33:49;;;;;;;26.30;23.50;;;-2.00;99.90;;;;;;5024020;28;20462;-78
2022/01/15 02:36:19;;;;;;;27.00;23.87;;;-2.00;99.90;;;;;;5022736;28;20521;-77
2022/01/15 02:38:49;;;;;;;24.50;22.17;;;-2.00;99.90;;;;;;5019006;28;20514;-77
2022/01/15 02:41:24;;;;;;;25.93;23.17;;;-2.00;99.90;;;;;;5005014;28;20451;-78
2022/01/15 02:43:51;;;;;;;24.63;21.90;;;-2.00;99.90;;;;;;5019965;28;20582;-78
2022/01/15 02:46:23;;;;;;;24.20;21.73;;;-2.10;99.90;;;;;;5020765;28;20442;-78
2022/01/15 02:48:53;;;;;;;25.83;22.83;;;-2.10;99.90;;;;;;5007361;28;20842;-78
2022/01/15 02:51:23;;;;;;;24.90;22.40;;;-2.20;99.90;;;;;;5006777;28;20815;-78
2022/01/15 02:53:55;;;;;;;27.93;22.87;;;-2.20;99.90;;;;;;5022502;28;20462;-78
2022/01/15 02:56:23;;;;;;;29.27;23.03;;;-2.20;99.90;;;;;;5010011;28;20875;-77
2022/01/15 02:58:50;;;;;;;25.70;22.87;;;-2.20;99.90;;;;;;5024869;28;20510;-77
2022/01/15 03:01:17;;;;;;;24.73;22.13;;;-2.20;99.90;;;;;;5017547;28;20871;-78
2022/01/15 03:03:45;;;;;;;25.67;22.70;;;-2.30;99.90;;;;;;5020345;28;20490;-78
2022/01/15 03:06:12;;;;;;;24.67;22.10;;;-2.30;99.90;;;;;;5010471;28;20448;-77
2022/01/15 03:08:41;;;;;;;26.43;22.97;;;-2.20;99.90;;;;;;5004592;28;20468;-78
2022/01/15 03:11:09;;;;;;;24.57;22.07;;;-2.20;99.90;;;;;;5004513;28;20447;-78
2022/01/15 03:13:36;;;;;;;26.23;20.83;;;-2.30;99.90;;;;;;5024233;28;20450;-77
2022/01/15 03:16:03;;;;;;;29.73;22.47;;;-2.30;99.90;;;;;;5023934;28;20438;-77
2022/01/15 03:18:29;;;;;;;26.60;21.97;;;-2.40;99.90;;;;;;5017615;28;20478;-77
2022/01/15 03:20:56;;;;;;;24.57;22.00;;;-2.40;99.90;;;;;;5017858;28;20452;-76
2022/01/15 03:23:23;;;;;;;25.80;23.00;;;-2.30;99.90;;;;;;5004260;28;20455;-78
2022/01/15 03:25:51;;;;;;;27.17;22.83;;;-2.40;99.90;;;;;;5021042;28;20479;-78
2022/01/15 03:28:18;;;;;;;29.97;22.70;;;-2.40;99.90;;;;;;5020008;28;20836;-78
2022/01/15 03:30:46;;;;;;;27.90;24.33;;;-2.40;99.90;;;;;;5012946;28;20443;-78
2022/01/15 03:33:12;;;;;;;25.23;22.67;;;-2.40;99.90;;;;;;5025174;28;20434;-78
2022/01/15 03:35:39;;;;;;;28.23;23.90;;;-2.40;99.90;;;;;;5016471;28;20474;-77
2022/01/15 03:38:07;;;;;;;29.50;25.33;;;-2.30;99.90;;;;;;5020939;28;20528;-77
2022/01/15 03:40:34;;;;;;;26.53;22.87;;;-2.30;99.90;;;;;;5021568;28;20869;-78
2022/01/15 03:43:03;;;;;;;26.37;23.53;;;-2.30;99.90;;;;;;5007950;28;20448;-77
2022/01/15 03:45:30;;;;;;;26.93;22.53;;;-2.30;99.90;;;;;;5019522;28;20443;-77
2022/01/15 03:47:57;;;;;;;27.80;22.53;;;-2.30;99.90;;;;;;5021624;28;20467;-78
2022/01/15 03:50:25;;;;;;;24.13;21.80;;;-2.30;99.90;;;;;;5015998;28;20937;-78
2022/01/15 03:52:53;;;;;;;26.43;22.60;;;-2.30;99.90;;;;;;5016656;28;20514;-78
2022/01/15 03:55:21;;;;;;;26.05;23.25;;;-2.30;99.90;;;;;;5020801;28;20431;-79
2022/01/15 03:57:48;;;;;;;28.50;25.40;;;-2.30;99.90;;;;;;4982990;28;20450;-79
2022/01/15 04:00:18;;;;;;;25.23;22.47;;;-2.30;99.90;;;;;;5013482;28;20220;-79
2022/01/15 04:02:48;;;;;;;29.37;25.43;;;-2.30;99.90;;;;;;5024238;28;20455;-80
2022/01/15 04:05:15;;;;;;;32.93;24.57;;;-2.20;99.90;;;;;;4984556;28;21092;-78
2022/01/15 04:07:42;;;;;;;27.93;24.93;;;-2.20;99.90;;;;;;4999280;28;20503;-80
2022/01/15 04:10:11;;;;;;;30.30;24.10;;;-2.20;99.90;;;;;;4993803;28;20479;-78
2022/01/15 04:12:38;;;;;;;31.40;25.80;;;-2.20;99.90;;;;;;5018043;28;20867;-78
2022/01/15 04:15:06;;;;;;;30.63;24.30;;;-2.30;99.90;;;;;;5018308;28;20872;-79
2022/01/15 04:17:35;;;;;;;28.43;23.97;;;-2.30;99.90;;;;;;5019947;28;20525;-79
2022/01/15 04:20:01;;;;;;;29.93;25.60;;;-2.30;99.90;;;;;;5008071;28;20530;-78
2022/01/15 04:22:28;;;;;;;33.47;25.57;;;-2.40;99.90;;;;;;5008988;28;20447;-78
2022/01/15 04:24:55;;;;;;;33.27;26.67;;;-2.30;99.90;;;;;;5011759;28;20440;-79
2022/01/15 04:27:23;;;;;;;34.77;28.23;;;-2.40;99.90;;;;;;4993940;28;21022;-78
2022/01/15 04:29:50;;;;;;;35.30;27.90;;;-2.40;99.90;;;;;;4993448;28;20900;-77
2022/01/15 04:32:17;;;;;;;35.50;26.90;;;-2.40;99.90;;;;;;5003404;28;20487;-77
2022/01/15 04:34:47;;;;;;;36.07;30.37;;;-2.50;99.90;;;;;;5021180;28;20489;-77
2022/01/15 04:37:18;;;;;;;40.07;30.53;;;-2.50;99.90;;;;;;5019333;28;20896;-77
2022/01/15 04:39:45;;;;;;;44.87;31.90;;;-2.50;99.90;;;;;;5022091;28;20993;-77
2022/01/15 04:42:15;;;;;;;43.70;30.37;;;-2.50;99.90;;;;;;4998028;28;20458;-77
2022/01/15 04:44:42;;;;;;;50.63;33.23;;;-2.60;99.90;;;;;;5022072;28;20895;-77
2022/01/15 04:47:09;;;;;;;48.03;32.80;;;-2.60;99.90;;;;;;5020450;28;20486;-77
2022/01/15 04:49:35;;;;;;;42.17;32.10;;;-2.50;99.90;;;;;;5021302;28;20524;-77
2022/01/15 04:52:04;;;;;;;44.13;30.70;;;-2.60;99.90;;;;;;5030243;28;20430;-77
2022/01/15 04:54:31;;;;;;;44.20;34.53;;;-2.60;99.90;;;;;;5022955;28;20870;-77
2022/01/15 04:56:58;;;;;;;36.63;29.30;;;-2.60;99.90;;;;;;5023694;28;20493;-77
2022/01/15 04:59:25;;;;;;;32.47;27.97;;;-2.70;99.90;;;;;;5019127;28;20516;-77
2022/01/15 05:01:52;;;;;;;33.83;27.83;;;-2.80;99.90;;;;;;5020872;28;20427;-78
2022/01/15 05:04:19;;;;;;;30.40;25.63;;;-2.80;99.90;;;;;;5019694;28;20443;-76
2022/01/15 05:06:45;;;;;;;26.87;23.80;;;-2.80;99.90;;;;;;5022518;28;20468;-76
2022/01/15 05:09:14;;;;;;;28.73;23.27;;;-2.70;99.90;;;;;;5009181;28;20474;-77
2022/01/15 05:11:48;;;;;;;31.10;25.50;;;-2.70;99.90;;;;;;5008466;28;20948;-77
2022/01/15 05:14:17;;;;;;;28.77;24.73;;;-2.70;99.90;;;;;;5024584;28;20450;-74
2022/01/15 05:16:44;;;;;;;28.20;24.57;;;-2.70;99.90;;;;;;5026748;28;20443;-77
2022/01/15 05:19:11;;;;;;;30.90;26.03;;;-2.60;99.90;;;;;;5019178;28;20541;-77
2022/01/15 05:21:38;;;;;;;27.07;24.17;;;-2.60;99.90;;;;;;5025424;28;20447;-77
2022/01/15 05:24:06;;;;;;;35.17;25.20;;;-2.60;99.90;;;;;;5026185;28;20962;-77
2022/01/15 05:26:34;;;;;;;26.43;23.67;;;-2.60;99.90;;;;;;5026349;28;20442;-77
2022/01/15 05:29:02;;;;;;;24.27;21.80;;;-2.60;99.90;;;;;;5065135;22;20988;-79
2022/01/15 05:31:29;;;;;;;25.07;22.50;;;-2.50;99.90;;;;;;5105813;28;20434;-79
2022/01/15 05:33:56;;;;;;;24.23;21.73;;;-2.60;99.90;;;;;;5104165;28;20760;-78
2022/01/15 05:36:22;;;;;;;22.93;20.63;;;-2.60;99.90;;;;;;5110531;28;20446;-78
2022/01/15 05:38:49;;;;;;;26.13;23.20;;;-2.60;99.90;;;;;;5088958;28;20476;-78
2022/01/15 05:41:16;;;;;;;25.77;23.20;;;-2.50;99.90;;;;;;5093471;28;20462;-79
2022/01/15 05:43:44;;;;;;;25.13;22.67;;;-2.50;99.90;;;;;;5074230;28;20198;-78
2022/01/15 05:46:11;;;;;;;25.00;22.50;;;-2.40;99.90;;;;;;5089652;28;20445;-77
2022/01/15 05:48:38;;;;;;;23.60;21.30;;;-2.30;99.90;;;;;;5072418;28;20461;-84
2022/01/15 05:51:17;;;;;;;23.47;20.77;;;-2.20;99.90;;;;;;5075235;28;20441;-78
2022/01/15 05:53:44;;;;;;;25.42;22.83;;;-2.20;99.90;;;;;;5078209;28;20449;-79
2022/01/15 05:56:11;;;;;;;23.00;20.67;;;-2.20;99.90;;;;;;5071551;28;20611;-79
2022/01/15 05:58:38;;;;;;;22.93;20.60;;;-2.20;99.90;;;;;;5074540;28;20875;-80
2022/01/15 06:01:06;;;;;;;24.27;21.83;;;-2.10;99.90;;;;;;5081465;28;20809;-78
2022/01/15 06:03:33;;;;;;;24.30;21.90;;;-2.10;99.90;;;;;;5076488;28;20510;-79
2022/01/15 06:06:02;;;;;;;24.87;22.27;;;-2.20;99.90;;;;;;5059433;28;20513;-78
2022/01/15 06:08:29;;;;;;;24.97;22.40;;;-2.20;99.90;;;;;;5073244;28;20780;-79
2022/01/15 06:10:56;;;;;;;23.83;21.40;;;-2.20;99.90;;;;;;5061223;28;20457;-77
2022/01/15 06:13:22;;;;;;;24.87;22.27;;;-2.30;99.90;;;;;;5053636;28;20502;-80
2022/01/15 06:15:49;;;;;;;25.57;22.87;;;-2.20;99.90;;;;;;5051783;28;20445;-79
2022/01/15 06:18:17;;;;;;;23.33;21.03;;;-2.30;99.90;;;;;;5074074;28;20452;-79
2022/01/15 06:20:44;;;;;;;24.93;22.47;;;-2.40;99.90;;;;;;5071385;28;20534;-79
2022/01/15 06:23:11;;;;;;;22.83;20.63;;;-2.40;99.90;;;;;;5071816;28;20449;-78
2022/01/15 06:25:38;;;;;;;22.40;20.20;;;-2.30;99.90;;;;;;5074289;28;20444;-78
2022/01/15 06:28:05;;;;;;;22.17;20.27;;;-2.40;99.90;;;;;;5075536;28;20864;-78
2022/01/15 06:30:32;;;;;;;23.10;21.03;;;-2.50;99.90;;;;;;5086793;28;20469;-83
2022/01/15 06:32:59;;;;;;;21.43;19.50;;;-2.50;99.90;;;;;;5080591;28;20739;-82
2022/01/15 06:35:27;;;;;;;21.27;19.37;;;-2.50;99.90;;;;;;5088638;28;20928;-83
2022/01/15 06:37:54;;;;;;;22.47;20.17;;;-2.60;99.90;;;;;;5075404;28;20499;-83
2022/01/15 06:40:21;;;;;;;20.63;18.63;;;-2.60;99.90;;;;;;5083948;28;20476;-81
2022/01/15 06:42:48;;;;;;;22.27;20.07;;;-2.70;99.90;;;;;;5068074;28;20457;-80
2022/01/15 06:45:15;;;;;;;20.60;18.60;;;-2.70;99.90;;;;;;5075607;28;20436;-79
2022/01/15 06:47:42;;;;;;;21.03;19.17;;;-2.60;99.90;;;;;;5062253;28;20460;-79
2022/01/15 06:50:09;;;;;;;21.93;19.93;;;-2.70;99.90;;;;;;5085860;28;20863;-78
2022/01/15 06:52:39;;;;;;;20.50;18.80;;;-2.70;99.90;;;;;;5082792;28;20502;-79
2022/01/15 06:55:08;;;;;;;21.63;19.80;;;-2.80;99.90;;;;;;5048218;28;20479;-78
2022/01/15 06:57:35;;;;;;;20.57;18.70;;;-2.80;99.90;;;;;;5092309;28;20470;-76
2022/01/15 07:00:02;;;;;;;23.13;20.73;;;-2.80;99.90;;;;;;5084287;28;21038;-79
2022/01/15 07:02:30;;;;;;;24.83;21.17;;;-2.80;99.90;;;;;;5073965;28;20472;-79
2022/01/15 07:04:57;;;;;;;23.13;20.97;;;-2.80;99.90;;;;;;5088408;28;20433;-80
2022/01/15 07:07:23;;;;;;;22.97;20.80;;;-2.70;99.90;;;;;;5083463;28;20910;-80
2022/01/15 07:09:52;;;;;;;22.77;20.70;;;-2.70;99.90;;;;;;5082867;28;20506;-80
2022/01/15 07:12:19;;;;;;;22.60;20.33;;;-2.80;99.90;;;;;;5085383;28;20439;-79
2022/01/15 07:14:45;;;;;;;22.13;20.07;;;-2.80;99.90;;;;;;5060781;28;20973;-79
2022/01/15 07:17:13;;;;;;;22.37;20.17;;;-2.80;99.90;;;;;;5076454;28;20440;-80
2022/01/15 07:19:39;;;;;;;22.90;20.70;;;-2.80;99.90;;;;;;5075057;28;20480;-79
2022/01/15 07:22:10;;;;;;;21.23;19.23;;;-2.80;99.90;;;;;;5074576;28;20445;-79
2022/01/15 07:24:49;;;;;;;22.07;20.07;;;-2.80;99.90;;;;;;5076510;28;20445;-78
2022/01/15 07:28:02;;;;;;;22.57;20.27;;;-2.80;99.90;;;;;;5057329;28;20457;-79
2022/01/15 07:38:09;;;;;;;24.07;21.77;;;-2.80;99.90;;;;;;4978162;28;20536;-79
2022/01/15 07:44:22;;;;;;;22.50;20.27;;;-2.70;99.90;;;;;;4905478;28;20500;-78
2022/01/15 07:46:59;;;;;;;23.33;21.00;;;-2.60;99.90;;;;;;4960744;28;20452;-79
2022/01/15 07:49:59;;;;;;;23.20;20.90;;;-2.60;99.90;;;;;;4967860;28;20458;-77
2022/01/15 07:52:32;;;;;;;22.03;20.03;;;-2.50;99.90;;;;;;5069210;28;20439;-80
2022/01/15 07:55:00;;;;;;;21.23;18.90;;;-2.50;99.90;;;;;;5059215;28;20479;-80
2022/01/15 07:57:55;;;;;;;22.07;20.13;;;-2.40;99.90;;;;;;5062163;28;20447;-78
2022/01/15 08:00:30;;;;;;;22.50;20.50;;;-2.20;99.90;;;;;;5082990;28;20569;-79
2022/01/15 08:02:58;;;;;;;22.57;20.53;;;-2.20;99.90;;;;;;5069879;28;20445;-79
2022/01/15 08:05:25;;;;;;;22.63;20.23;;;-2.10;99.90;;;;;;5059919;28;20448;-82
2022/01/15 08:07:51;;;;;;;22.33;20.17;;;-1.80;99.90;;;;;;5067974;28;20441;-81
2022/01/15 08:10:18;;;;;;;23.13;20.77;;;-1.60;99.90;;;;;;5064516;28;20472;-80
2022/01/15 08:12:47;;;;;;;23.07;20.80;;;-1.40;99.90;;;;;;5085625;28;20567;-80
2022/01/15 08:15:14;;;;;;;23.47;21.23;;;-1.20;99.90;;;;;;5094789;28;20432;-81
2022/01/15 08:17:41;;;;;;;26.17;23.13;;;-1.10;99.90;;;;;;5077567;28;20445;-80
2022/01/15 08:20:11;;;;;;;24.60;22.00;;;-0.90;99.90;;;;;;5083741;28;20476;-80
2022/01/15 08:22:38;;;;;;;25.57;22.93;;;-0.70;99.90;;;;;;5077856;28;20452;-79
2022/01/15 08:25:07;;;;;;;24.90;22.50;;;-0.50;99.90;;;;;;5070681;28;20441;-81
2022/01/15 08:27:34;;;;;;;25.00;22.67;;;-0.20;99.90;;;;;;5079434;28;20526;-81
2022/01/15 08:30:01;;;;;;;23.90;21.80;;;0.10;99.90;;;;;;5072641;28;20841;-80
2022/01/15 08:32:27;;;;;;;28.97;26.13;;;0.30;99.90;;;;;;5067227;28;20978;-79
2022/01/15 08:34:54;;;;;;;25.03;22.73;;;0.50;99.90;;;;;;5074311;28;20447;-80
2022/01/15 08:37:22;;;;;;;25.33;22.67;;;0.90;99.90;;;;;;5087576;28;20429;-80
2022/01/15 08:39:49;;;;;;;23.97;21.87;;;1.20;99.90;;;;;;5092757;28;20473;-80
2022/01/15 08:45:22;;;;;;;22.40;20.47;;;1.40;99.90;;;;;;5074469;28;20448;-79
2022/01/15 08:47:49;;;;;;;20.80;18.90;;;1.60;99.90;;;;;;5084662;28;20439;-79
2022/01/15 08:50:48;;;;;;;22.23;19.87;;;1.70;99.90;;;;;;5059602;28;20483;-81
2022/01/15 08:53:21;;;;;;;21.83;19.93;;;1.70;99.90;;;;;;5077541;28;21075;-80
2022/01/15 08:55:48;;;;;;;21.80;19.90;;;1.70;99.90;;;;;;5067760;28;20791;-81
2022/01/15 08:58:15;;;;;;;21.87;19.97;;;1.90;99.90;;;;;;5070245;28;20449;-76
2022/01/15 09:00:42;;;;;;;20.87;19.00;;;1.90;99.90;;;;;;5086762;28;20467;-77
2022/01/15 09:03:09;;;;;;;21.67;19.70;;;2.00;99.90;;;;;;5084063;28;20194;-82
2022/01/15 09:05:36;;;;;;;21.90;20.00;;;2.00;99.90;;;;;;5073623;28;20510;-80
2022/01/15 09:08:05;;;;;;;20.87;18.90;;;1.90;99.90;;;;;;5085609;28;20190;-80
2022/01/15 09:10:41;;;;;;;21.50;19.50;;;2.10;99.90;;;;;;5092797;28;20460;-84
2022/01/15 09:13:08;;;;;;;19.67;17.87;;;2.20;99.90;;;;;;5068860;28;20506;-82
2022/01/15 09:15:35;;;;;;;20.27;18.30;;;2.20;99.90;;;;;;5096553;28;20197;-81
2022/01/15 09:18:03;;;;;;;20.13;18.43;;;2.10;99.90;;;;;;5088133;28;20201;-81
2022/01/15 09:20:29;;;;;;;20.47;18.67;;;2.10;99.90;;;;;;5091041;28;20476;-82
2022/01/15 09:22:57;;;;;;;19.40;17.80;;;2.10;99.90;;;;;;5075414;28;20502;-82
2022/01/15 09:25:25;;;;;;;20.27;18.40;;;2.10;99.90;;;;;;5072161;28;20211;-80
2022/01/15 09:30:38;;;;;;;18.87;17.30;;;1.80;99.90;;;;;;5071343;28;20605;-81
2022/01/15 09:33:06;;;;;;;20.00;17.93;;;1.70;99.90;;;;;;5078464;28;20470;-81
2022/01/15 09:35:34;;;;;;;20.10;18.20;;;1.60;99.90;;;;;;5075241;28;21025;-82
2022/01/15 09:38:01;;;;;;;20.30;18.40;;;1.50;99.90;;;;;;5098261;28;20444;-82
2022/01/15 09:40:28;;;;;;;19.17;17.50;;;1.30;99.90;;;;;;5086686;28;20474;-82
2022/01/15 09:42:57;;;;;;;19.00;17.33;;;1.30;99.90;;;;;;5093405;28;20522;-84
2022/01/15 09:45:25;;;;;;;19.33;17.73;;;1.20;99.90;;;;;;5081223;28;20433;-80
2022/01/15 09:47:56;;;;;;;19.63;18.03;;;1.10;99.90;;;;;;5092415;28;20491;-84
2022/01/15 09:50:25;;;;;;;20.13;18.37;;;1.10;99.90;;;;;;5093136;28;20469;-83
2022/01/15 09:53:05;;;;;;;19.20;17.53;;;1.00;99.90;;;;;;5076001;28;20472;-85
2022/01/15 09:55:32;;;;;;;19.60;18.00;;;1.00;99.90;;;;;;5060385;28;21046;-77
2022/01/15 09:58:00;;;;;;;20.33;18.57;;;1.00;99.90;;;;;;5080229;28;20957;-84
2022/01/15 10:00:28;;;;;;;19.50;17.80;;;1.00;99.90;;;;;;5074415;28;20475;-79
2022/01/15 10:02:57;;;;;;;20.77;18.87;;;1.10;99.90;;;;;;5087092;28;21033;-81
2022/01/15 10:05:25;;;;;;;18.57;16.97;;;1.10;99.90;;;;;;5093115;28;20532;-81
2022/01/15 10:08:00;;;;;;;20.87;19.03;;;1.20;99.90;;;;;;5091122;28;20450;-80
2022/01/15 10:10:30;;;;;;;20.27;18.37;;;1.20;99.90;;;;;;5089834;28;20460;-81
2022/01/15 10:13:14;;;;;;;19.37;17.67;;;1.30;99.90;;;;;;5072737;28;20974;-81
2022/01/15 10:15:42;;;;;;;19.30;17.60;;;1.30;99.90;;;;;;5073196;28;20475;-81
2022/01/15 10:18:24;;;;;;;19.53;17.90;;;1.30;99.90;;;;;;5091917;28;20813;-80
2022/01/15 10:20:52;;;;;;;20.70;19.07;;;1.40;99.90;;;;;;5094067;28;20477;-81
2022/01/15 10:23:22;;;;;;;19.57;17.90;;;1.40;99.90;;;;;;5072921;28;20841;-79
2022/01/15 10:26:16;;;;;;;19.43;17.73;;;1.40;99.90;;;;;;5090699;28;20445;-80
2022/01/15 10:28:53;;;;;;;18.87;17.20;;;1.60;99.90;;;;;;5081514;28;20440;-81
2022/01/15 10:31:21;;;;;;;20.13;18.27;;;1.70;99.90;;;;;;5072825;28;20452;-79
2022/01/15 10:33:48;;;;;;;19.13;17.33;;;1.70;99.90;;;;;;5070838;28;20440;-81
2022/01/15 10:36:20;;;;;;;19.20;17.50;;;1.70;99.90;;;;;;5076321;28;20489;-80
2022/01/15 10:38:47;;;;;;;17.67;16.17;;;1.80;99.90;;;;;;5086276;28;20464;-81
2022/01/15 10:41:29;;;;;;;18.27;16.70;;;1.80;99.90;;;;;;5093787;28;20547;-81
2022/01/15 10:43:58;;;;;;;19.00;17.40;;;1.90;99.90;;;;;;5091126;28;20862;-81
2022/01/15 10:46:34;;;;;;;19.13;17.50;;;1.80;99.90;;;;;;5093797;28;20471;-81
2022/01/15 10:49:21;;;;;;;20.10;18.13;;;1.90;99.90;;;;;;5072513;28;20473;-82
2022/01/15 10:52:05;;;;;;;20.07;18.27;;;1.90;99.90;;;;;;5093917;28;20858;-80
2022/01/15 10:54:34;;;;;;;18.93;17.23;;;1.90;99.90;;;;;;5088708;28;20431;-80
2022/01/15 10:57:09;;;;;;;19.33;17.63;;;1.90;99.90;;;;;;5088881;28;20921;-80
2022/01/15 10:59:37;;;;;;;19.03;17.23;;;1.90;99.90;;;;;;5076312;28;20465;-80
2022/01/15 11:02:18;;;;;;;19.27;17.60;;;2.00;99.90;;;;;;5093496;28;21104;-81
2022/01/15 11:04:45;;;;;;;19.20;17.60;;;2.10;99.90;;;;;;5069563;28;20450;-82
2022/01/15 11:07:12;;;;;;;18.90;17.40;;;2.20;99.90;;;;;;5091684;28;20815;-81
2022/01/15 11:09:39;;;;;;;19.30;17.70;;;2.20;99.90;;;;;;5083307;28;20472;-81
2022/01/15 11:12:09;;;;;;;20.87;19.17;;;2.30;99.90;;;;;;5058981;28;20444;-81
2022/01/15 11:14:37;;;;;;;20.33;18.53;;;2.30;99.90;;;;;;5090168;28;20976;-82
2022/01/15 11:17:05;;;;;;;21.10;19.07;;;2.40;99.90;;;;;;5094900;28;20439;-81
2022/01/15 11:19:33;;;;;;;22.80;20.80;;;2.40;99.90;;;;;;5090341;28;20765;-81
2022/01/15 11:22:01;;;;;;;21.60;19.70;;;2.40;99.90;;;;;;5082732;28;20992;-80
2022/01/15 11:24:28;;;;;;;21.73;19.83;;;2.40;99.90;;;;;;5074905;28;20428;-80
2022/01/15 11:26:58;;;;;;;21.40;19.50;;;2.50;99.90;;;;;;5067067;28;20441;-81
2022/01/15 11:29:26;;;;;;;21.63;19.63;;;2.50;99.90;;;;;;5116428;22;20588;-79
2022/01/15 11:31:57;;;;;;;22.57;20.63;;;2.50;99.90;;;;;;5095563;28;20810;-79
2022/01/15 11:34:25;;;;;;;21.30;19.60;;;2.50;99.90;;;;;;5087596;28;20500;-79
2022/01/15 11:36:52;;;;;;;21.30;19.13;;;2.60;99.90;;;;;;5072733;28;20511;-79
2022/01/15 11:39:21;;;;;;;20.90;19.10;;;2.50;99.90;;;;;;5073613;28;20502;-79
2022/01/15 11:41:52;;;;;;;22.70;20.60;;;2.60;99.90;;;;;;5061388;28;20999;-79
2022/01/15 11:44:20;;;;;;;22.90;20.67;;;2.70;99.90;;;;;;5055948;28;20965;-79
2022/01/15 11:46:50;;;;;;;22.07;20.00;;;2.70;99.90;;;;;;5069599;28;20439;-79
2022/01/15 11:49:34;;;;;;;21.63;19.37;;;2.80;99.90;;;;;;5055827;28;21036;-79
2022/01/15 11:52:33;;;;;;;23.40;21.20;;;2.90;99.90;;;;;;5070064;28;20518;-79
2022/01/15 11:55:30;;;;;;;22.30;20.27;;;2.90;99.90;;;;;;5065752;28;20514;-79
2022/01/15 11:58:01;;;;;;;23.80;21.67;;;3.00;99.90;;;;;;5051898;28;20875;-79
2022/01/15 12:00:33;;;;;;;23.07;20.73;;;3.00;99.90;;;;;;5069514;28;20468;-79
2022/01/15 12:03:11;;;;;;;21.77;19.97;;;3.00;99.90;;;;;;5052252;28;20451;-79
2022/01/15 12:05:41;;;;;;;21.80;19.87;;;3.10;99.90;;;;;;5070358;28;20431;-79
2022/01/15 12:08:32;;;;;;;22.07;19.83;;;3.20;99.90;;;;;;5056081;28;20473;-79
2022/01/15 12:11:02;;;;;;;23.07;20.97;;;3.30;99.90;;;;;;5065052;28;21281;-79
2022/01/15 12:13:34;;;;;;;22.00;19.90;;;3.30;99.90;;;;;;5066096;28;20451;-79
2022/01/15 12:16:24;;;;;;;23.53;21.33;;;3.30;99.90;;;;;;5073584;28;20938;-79
2022/01/15 12:18:52;;;;;;;22.93;20.80;;;3.40;99.90;;;;;;5064189;28;20456;-79
2022/01/15 12:21:46;;;;;;;23.33;20.87;;;3.40;99.90;;;;;;5070906;28;20522;-79
2022/01/15 12:24:52;;;;;;;23.50;21.20;;;3.50;99.90;;;;;;5077384;28;20190;-79
2022/01/15 12:27:25;;;;;;;23.67;21.37;;;3.50;99.90;;;;;;5069451;28;20448;-79
2022/01/15 12:30:05;;;;;;;22.07;20.07;;;3.50;99.90;;;;;;5071755;28;20484;-79
2022/01/15 12:32:36;;;;;;;22.73;20.73;;;3.60;99.90;;;;;;5048624;28;20568;-79
2022/01/15 12:35:04;;;;;;;22.13;20.17;;;3.70;99.90;;;;;;5063215;28;20194;-79
2022/01/15 12:37:34;;;;;;;22.10;20.13;;;3.70;99.90;;;;;;5051938;28;20976;-80
2022/01/15 12:40:04;;;;;;;23.30;21.23;;;3.80;99.90;;;;;;5058006;28;20467;-79
2022/01/15 12:42:33;;;;;;;21.40;19.30;;;3.80;99.90;;;;;;5048393;28;20473;-80
2022/01/15 12:45:00;;;;;;;23.03;20.83;;;3.80;99.90;;;;;;5072934;28;20198;-80
2022/01/15 12:47:42;;;;;;;22.90;20.67;;;3.90;99.90;;;;;;5068702;28;20202;-80
2022/01/15 12:50:10;;;;;;;20.80;19.00;;;3.90;99.90;;;;;;5074765;28;20722;-80
2022/01/15 12:52:38;;;;;;;20.83;19.13;;;3.90;99.90;;;;;;5057796;28;20678;-70
2022/01/15 12:55:06;;;;;;;21.67;19.77;;;4.00;99.90;;;;;;5078184;28;20201;-76
2022/01/15 12:57:45;;;;;;;23.63;21.37;;;4.00;99.90;;;;;;5071298;28;20193;-82
2022/01/15 13:00:14;;;;;;;21.93;20.03;;;4.00;99.90;;;;;;5079426;28;20216;-79
2022/01/15 13:02:41;;;;;;;22.30;20.13;;;4.10;99.90;;;;;;5065596;28;20808;-79
2022/01/15 13:05:12;;;;;;;22.33;20.20;;;4.10;99.90;;;;;;5080737;28;20195;-81
2022/01/15 13:07:51;;;;;;;22.47;20.47;;;4.10;99.90;;;;;;5069615;28;20199;-78